sensor_id;sensor_type;location;lat;lon;timestamp;P1;durP1;ratioP1;P2;durP2;ratioP2
15082;SDS011;7640;53.116;6.878;2023-09-30T00:00:46;16.03;;;5.93;;
15082;SDS011;7640;53.116;6.878;2023-09-30T00:03:23;15.70;;;5.53;;
15082;SDS011;7640;53.116;6.878;2023-09-30T00:05:52;10.10;;;4.93;;
15082;SDS011;7640;53.116;6.878;2023-09-30T00:08:22;16.80;;;5.67;;
15082;SDS011;7640;53.116;6.878;2023-09-30T00:10:51;18.23;;;6.33;;
15082;SDS011;7640;53.116;6.878;2023-09-30T00:13:21;15.57;;;5.70;;
15082;SDS011;7640;53.116;6.878;2023-09-30T00:15:50;21.53;;;6.73;;
15082;SDS011;7640;53.116;6.878;2023-09-30T00:18:19;14.33;;;6.17;;
15082;SDS011;7640;53.116;6.878;2023-09-30T00:20:49;19.93;;;6.43;;
15082;SDS011;7640;53.116;6.878;2023-09-30T00:23:17;20.53;;;6.37;;
15082;SDS011;7640;53.116;6.878;2023-09-30T00:25:47;18.23;;;6.27;;
15082;SDS011;7640;53.116;6.878;2023-09-30T00:28:16;15.07;;;5.60;;
15082;SDS011;7640;53.116;6.878;2023-09-30T00:30:45;22.77;;;6.20;;
15082;SDS011;7640;53.116;6.878;2023-09-30T00:33:15;13.17;;;5.93;;
15082;SDS011;7640;53.116;6.878;2023-09-30T00:35:43;17.97;;;6.47;;
15082;SDS011;7640;53.116;6.878;2023-09-30T00:38:14;17.67;;;6.70;;
15082;SDS011;7640;53.116;6.878;2023-09-30T00:40:46;22.60;;;5.87;;
15082;SDS011;7640;53.116;6.878;2023-09-30T00:43:23;16.93;;;6.37;;
15082;SDS011;7640;53.116;6.878;2023-09-30T00:45:52;17.57;;;5.83;;
15082;SDS011;7640;53.116;6.878;2023-09-30T00:48:32;19.83;;;6.33;;
15082;SDS011;7640;53.116;6.878;2023-09-30T00:51:05;17.30;;;6.07;;
15082;SDS011;7640;53.116;6.878;2023-09-30T00:53:35;13.17;;;5.33;;
15082;SDS011;7640;53.116;6.878;2023-09-30T00:56:04;14.47;;;5.80;;
15082;SDS011;7640;53.116;6.878;2023-09-30T00:58:33;14.53;;;5.40;;
15082;SDS011;7640;53.116;6.878;2023-09-30T01:01:03;14.77;;;5.33;;
15082;SDS011;7640;53.116;6.878;2023-09-30T01:03:33;20.37;;;5.87;;
15082;SDS011;7640;53.116;6.878;2023-09-30T01:06:02;16.80;;;5.70;;
15082;SDS011;7640;53.116;6.878;2023-09-30T01:08:32;17.43;;;7.00;;
15082;SDS011;7640;53.116;6.878;2023-09-30T01:11:02;16.60;;;6.63;;
15082;SDS011;7640;53.116;6.878;2023-09-30T01:13:31;16.90;;;6.27;;
15082;SDS011;7640;53.116;6.878;2023-09-30T01:16:02;15.33;;;6.07;;
15082;SDS011;7640;53.116;6.878;2023-09-30T01:18:32;14.93;;;5.17;;
15082;SDS011;7640;53.116;6.878;2023-09-30T01:21:02;22.07;;;6.53;;
15082;SDS011;7640;53.116;6.878;2023-09-30T01:23:34;18.10;;;6.30;;
15082;SDS011;7640;53.116;6.878;2023-09-30T01:26:03;17.00;;;6.27;;
15082;SDS011;7640;53.116;6.878;2023-09-30T01:28:35;17.43;;;6.20;;
15082;SDS011;7640;53.116;6.878;2023-09-30T01:31:04;18.40;;;6.03;;
15082;SDS011;7640;53.116;6.878;2023-09-30T01:33:32;14.97;;;5.90;;
15082;SDS011;7640;53.116;6.878;2023-09-30T01:36:02;14.37;;;5.43;;
15082;SDS011;7640;53.116;6.878;2023-09-30T01:38:34;17.90;;;6.57;;
15082;SDS011;7640;53.116;6.878;2023-09-30T01:41:03;17.23;;;6.53;;
15082;SDS011;7640;53.116;6.878;2023-09-30T01:43:32;13.50;;;5.90;;
15082;SDS011;7640;53.116;6.878;2023-09-30T01:46:02;15.13;;;6.30;;
15082;SDS011;7640;53.116;6.878;2023-09-30T01:48:32;16.97;;;6.40;;
15082;SDS011;7640;53.116;6.878;2023-09-30T01:51:05;15.37;;;6.17;;
15082;SDS011;7640;53.116;6.878;2023-09-30T01:53:36;20.63;;;7.23;;
15082;SDS011;7640;53.116;6.878;2023-09-30T01:56:06;22.07;;;6.50;;
15082;SDS011;7640;53.116;6.878;2023-09-30T01:58:34;14.57;;;6.03;;
15082;SDS011;7640;53.116;6.878;2023-09-30T02:01:03;14.60;;;6.10;;
15082;SDS011;7640;53.116;6.878;2023-09-30T02:03:32;13.97;;;5.33;;
15082;SDS011;7640;53.116;6.878;2023-09-30T02:06:01;13.50;;;5.73;;
15082;SDS011;7640;53.116;6.878;2023-09-30T02:08:31;16.17;;;5.97;;
15082;SDS011;7640;53.116;6.878;2023-09-30T02:11:03;16.63;;;6.23;;
15082;SDS011;7640;53.116;6.878;2023-09-30T02:13:33;18.40;;;5.93;;
15082;SDS011;7640;53.116;6.878;2023-09-30T02:16:02;17.40;;;6.03;;
15082;SDS011;7640;53.116;6.878;2023-09-30T02:18:32;18.07;;;6.53;;
15082;SDS011;7640;53.116;6.878;2023-09-30T02:21:03;16.40;;;5.67;;
15082;SDS011;7640;53.116;6.878;2023-09-30T02:23:35;15.33;;;6.10;;
15082;SDS011;7640;53.116;6.878;2023-09-30T02:26:05;16.30;;;6.20;;
15082;SDS011;7640;53.116;6.878;2023-09-30T02:28:34;16.40;;;6.27;;
15082;SDS011;7640;53.116;6.878;2023-09-30T02:31:03;17.27;;;6.47;;
15082;SDS011;7640;53.116;6.878;2023-09-30T02:33:34;13.20;;;5.50;;
15082;SDS011;7640;53.116;6.878;2023-09-30T02:36:06;17.53;;;6.60;;
15082;SDS011;7640;53.116;6.878;2023-09-30T02:38:35;13.23;;;6.10;;
15082;SDS011;7640;53.116;6.878;2023-09-30T02:41:06;15.67;;;5.60;;
15082;SDS011;7640;53.116;6.878;2023-09-30T02:43:34;13.53;;;6.40;;
15082;SDS011;7640;53.116;6.878;2023-09-30T02:46:05;18.17;;;7.27;;
15082;SDS011;7640;53.116;6.878;2023-09-30T02:48:35;17.30;;;6.77;;
15082;SDS011;7640;53.116;6.878;2023-09-30T02:51:04;19.47;;;7.40;;
15082;SDS011;7640;53.116;6.878;2023-09-30T02:53:38;13.80;;;6.53;;
15082;SDS011;7640;53.116;6.878;2023-09-30T02:56:08;15.73;;;6.47;;
15082;SDS011;7640;53.116;6.878;2023-09-30T02:58:37;22.50;;;7.10;;
15082;SDS011;7640;53.116;6.878;2023-09-30T03:01:07;18.53;;;7.13;;
15082;SDS011;7640;53.116;6.878;2023-09-30T03:03:37;18.17;;;7.00;;
15082;SDS011;7640;53.116;6.878;2023-09-30T03:06:06;17.30;;;7.40;;
15082;SDS011;7640;53.116;6.878;2023-09-30T03:08:35;19.97;;;7.43;;
15082;SDS011;7640;53.116;6.878;2023-09-30T03:11:04;18.40;;;6.97;;
15082;SDS011;7640;53.116;6.878;2023-09-30T03:13:35;14.93;;;6.63;;
15082;SDS011;7640;53.116;6.878;2023-09-30T03:16:04;14.33;;;6.27;;
15082;SDS011;7640;53.116;6.878;2023-09-30T03:18:33;15.87;;;6.40;;
15082;SDS011;7640;53.116;6.878;2023-09-30T03:21:02;19.00;;;6.73;;
15082;SDS011;7640;53.116;6.878;2023-09-30T03:23:41;15.37;;;6.70;;
15082;SDS011;7640;53.116;6.878;2023-09-30T03:26:10;15.37;;;6.70;;
15082;SDS011;7640;53.116;6.878;2023-09-30T03:28:39;18.77;;;7.80;;
15082;SDS011;7640;53.116;6.878;2023-09-30T03:31:08;16.63;;;6.90;;
15082;SDS011;7640;53.116;6.878;2023-09-30T03:33:37;16.90;;;6.67;;
15082;SDS011;7640;53.116;6.878;2023-09-30T03:36:08;20.40;;;7.50;;
15082;SDS011;7640;53.116;6.878;2023-09-30T03:38:37;18.40;;;7.10;;
15082;SDS011;7640;53.116;6.878;2023-09-30T03:41:08;15.17;;;7.10;;
15082;SDS011;7640;53.116;6.878;2023-09-30T03:43:41;18.07;;;6.77;;
15082;SDS011;7640;53.116;6.878;2023-09-30T03:46:10;20.80;;;7.10;;
15082;SDS011;7640;53.116;6.878;2023-09-30T03:48:39;16.73;;;6.80;;
15082;SDS011;7640;53.116;6.878;2023-09-30T03:51:08;17.13;;;6.97;;
15082;SDS011;7640;53.116;6.878;2023-09-30T03:53:40;20.60;;;7.33;;
15082;SDS011;7640;53.116;6.878;2023-09-30T03:56:09;18.60;;;7.57;;
15082;SDS011;7640;53.116;6.878;2023-09-30T03:58:41;17.37;;;7.60;;
15082;SDS011;7640;53.116;6.878;2023-09-30T04:01:11;20.43;;;7.63;;
15082;SDS011;7640;53.116;6.878;2023-09-30T04:03:41;17.57;;;7.17;;
15082;SDS011;7640;53.116;6.878;2023-09-30T04:06:10;21.07;;;8.50;;
15082;SDS011;7640;53.116;6.878;2023-09-30T04:08:39;22.43;;;8.50;;
15082;SDS011;7640;53.116;6.878;2023-09-30T04:11:10;18.67;;;8.10;;
15082;SDS011;7640;53.116;6.878;2023-09-30T04:13:45;17.70;;;8.10;;
15082;SDS011;7640;53.116;6.878;2023-09-30T04:16:14;15.93;;;8.67;;
15082;SDS011;7640;53.116;6.878;2023-09-30T04:18:45;18.60;;;7.73;;
15082;SDS011;7640;53.116;6.878;2023-09-30T04:21:16;21.03;;;9.10;;
15082;SDS011;7640;53.116;6.878;2023-09-30T04:23:45;20.90;;;8.87;;
15082;SDS011;7640;53.116;6.878;2023-09-30T04:26:15;17.17;;;8.10;;
15082;SDS011;7640;53.116;6.878;2023-09-30T04:28:48;22.03;;;9.10;;
15082;SDS011;7640;53.116;6.878;2023-09-30T04:31:19;16.13;;;8.20;;
15082;SDS011;7640;53.116;6.878;2023-09-30T04:33:50;24.90;;;8.67;;
15082;SDS011;7640;53.116;6.878;2023-09-30T04:36:19;18.57;;;8.10;;
15082;SDS011;7640;53.116;6.878;2023-09-30T04:38:49;17.27;;;8.80;;
15082;SDS011;7640;53.116;6.878;2023-09-30T04:41:18;23.30;;;9.43;;
15082;SDS011;7640;53.116;6.878;2023-09-30T04:43:51;19.43;;;8.97;;
15082;SDS011;7640;53.116;6.878;2023-09-30T04:46:20;16.40;;;8.30;;
15082;SDS011;7640;53.116;6.878;2023-09-30T04:48:50;23.07;;;8.70;;
15082;SDS011;7640;53.116;6.878;2023-09-30T04:51:19;18.53;;;8.83;;
15082;SDS011;7640;53.116;6.878;2023-09-30T04:53:51;18.17;;;9.23;;
15082;SDS011;7640;53.116;6.878;2023-09-30T04:56:21;18.50;;;8.80;;
15082;SDS011;7640;53.116;6.878;2023-09-30T04:58:51;22.20;;;8.70;;
15082;SDS011;7640;53.116;6.878;2023-09-30T05:01:20;18.17;;;8.30;;
15082;SDS011;7640;53.116;6.878;2023-09-30T05:03:48;23.83;;;9.43;;
15082;SDS011;7640;53.116;6.878;2023-09-30T05:06:19;17.83;;;8.83;;
15082;SDS011;7640;53.116;6.878;2023-09-30T05:08:48;16.83;;;8.53;;
15082;SDS011;7640;53.116;6.878;2023-09-30T05:11:18;14.77;;;8.33;;
15082;SDS011;7640;53.116;6.878;2023-09-30T05:13:47;19.00;;;8.70;;
15082;SDS011;7640;53.116;6.878;2023-09-30T05:16:17;16.43;;;8.53;;
15082;SDS011;7640;53.116;6.878;2023-09-30T05:18:45;18.80;;;8.73;;
15082;SDS011;7640;53.116;6.878;2023-09-30T05:21:14;16.93;;;8.30;;
15082;SDS011;7640;53.116;6.878;2023-09-30T05:23:43;19.43;;;9.10;;
15082;SDS011;7640;53.116;6.878;2023-09-30T05:26:12;18.03;;;9.30;;
15082;SDS011;7640;53.116;6.878;2023-09-30T05:28:41;18.27;;;9.13;;
15082;SDS011;7640;53.116;6.878;2023-09-30T05:31:10;18.93;;;9.40;;
15082;SDS011;7640;53.116;6.878;2023-09-30T05:33:41;19.97;;;10.00;;
15082;SDS011;7640;53.116;6.878;2023-09-30T05:36:10;19.97;;;8.77;;
15082;SDS011;7640;53.116;6.878;2023-09-30T05:38:40;23.10;;;9.23;;
15082;SDS011;7640;53.116;6.878;2023-09-30T05:41:08;20.13;;;9.13;;
15082;SDS011;7640;53.116;6.878;2023-09-30T05:43:38;23.17;;;9.70;;
15082;SDS011;7640;53.116;6.878;2023-09-30T05:46:06;21.03;;;10.13;;
15082;SDS011;7640;53.116;6.878;2023-09-30T05:48:35;17.73;;;8.97;;
15082;SDS011;7640;53.116;6.878;2023-09-30T05:51:07;17.57;;;9.30;;
15082;SDS011;7640;53.116;6.878;2023-09-30T05:53:37;19.43;;;9.10;;
15082;SDS011;7640;53.116;6.878;2023-09-30T05:56:05;18.03;;;9.23;;
15082;SDS011;7640;53.116;6.878;2023-09-30T05:58:36;20.40;;;9.50;;
15082;SDS011;7640;53.116;6.878;2023-09-30T06:01:07;19.33;;;8.77;;
15082;SDS011;7640;53.116;6.878;2023-09-30T06:03:39;25.23;;;9.50;;
15082;SDS011;7640;53.116;6.878;2023-09-30T06:06:15;17.23;;;9.57;;
15082;SDS011;7640;53.116;6.878;2023-09-30T06:08:44;17.60;;;10.03;;
15082;SDS011;7640;53.116;6.878;2023-09-30T06:11:16;23.07;;;9.17;;
15082;SDS011;7640;53.116;6.878;2023-09-30T06:13:45;17.63;;;9.43;;
15082;SDS011;7640;53.116;6.878;2023-09-30T06:16:14;18.80;;;9.27;;
15082;SDS011;7640;53.116;6.878;2023-09-30T06:18:43;19.97;;;9.37;;
15082;SDS011;7640;53.116;6.878;2023-09-30T06:21:13;18.23;;;9.37;;
15082;SDS011;7640;53.116;6.878;2023-09-30T06:23:44;24.00;;;10.40;;
15082;SDS011;7640;53.116;6.878;2023-09-30T06:26:13;17.23;;;10.33;;
15082;SDS011;7640;53.116;6.878;2023-09-30T06:28:43;18.23;;;9.73;;
15082;SDS011;7640;53.116;6.878;2023-09-30T06:31:14;17.50;;;9.67;;
15082;SDS011;7640;53.116;6.878;2023-09-30T06:33:43;22.00;;;11.33;;
15082;SDS011;7640;53.116;6.878;2023-09-30T06:36:12;20.47;;;10.37;;
15082;SDS011;7640;53.116;6.878;2023-09-30T06:38:43;20.60;;;10.90;;
15082;SDS011;7640;53.116;6.878;2023-09-30T06:41:15;17.37;;;10.70;;
15082;SDS011;7640;53.116;6.878;2023-09-30T06:43:44;21.40;;;11.13;;
15082;SDS011;7640;53.116;6.878;2023-09-30T06:46:13;21.70;;;11.43;;
15082;SDS011;7640;53.116;6.878;2023-09-30T06:48:43;20.50;;;11.33;;
15082;SDS011;7640;53.116;6.878;2023-09-30T06:51:12;24.13;;;11.47;;
15082;SDS011;7640;53.116;6.878;2023-09-30T06:53:43;20.67;;;10.23;;
15082;SDS011;7640;53.116;6.878;2023-09-30T06:56:13;20.97;;;10.87;;
15082;SDS011;7640;53.116;6.878;2023-09-30T06:58:42;17.47;;;11.07;;
15082;SDS011;7640;53.116;6.878;2023-09-30T07:01:14;23.17;;;11.37;;
15082;SDS011;7640;53.116;6.878;2023-09-30T07:03:44;18.43;;;11.10;;
15082;SDS011;7640;53.116;6.878;2023-09-30T07:06:20;15.73;;;9.93;;
15082;SDS011;7640;53.116;6.878;2023-09-30T07:08:50;16.73;;;10.43;;
15082;SDS011;7640;53.116;6.878;2023-09-30T07:11:26;18.50;;;10.70;;
15082;SDS011;7640;53.116;6.878;2023-09-30T07:13:56;18.13;;;11.30;;
15082;SDS011;7640;53.116;6.878;2023-09-30T07:16:24;18.83;;;10.87;;
15082;SDS011;7640;53.116;6.878;2023-09-30T07:18:53;19.20;;;10.90;;
15082;SDS011;7640;53.116;6.878;2023-09-30T07:21:24;18.00;;;10.70;;
15082;SDS011;7640;53.116;6.878;2023-09-30T07:23:52;17.20;;;10.00;;
15082;SDS011;7640;53.116;6.878;2023-09-30T07:26:23;19.30;;;11.00;;
15082;SDS011;7640;53.116;6.878;2023-09-30T07:28:52;18.33;;;11.23;;
15082;SDS011;7640;53.116;6.878;2023-09-30T07:31:23;23.10;;;12.27;;
15082;SDS011;7640;53.116;6.878;2023-09-30T07:33:52;18.17;;;10.90;;
15082;SDS011;7640;53.116;6.878;2023-09-30T07:36:21;19.33;;;11.50;;
15082;SDS011;7640;53.116;6.878;2023-09-30T07:38:51;21.57;;;10.70;;
15082;SDS011;7640;53.116;6.878;2023-09-30T07:41:20;21.13;;;11.23;;
15082;SDS011;7640;53.116;6.878;2023-09-30T07:43:49;21.70;;;10.47;;
15082;SDS011;7640;53.116;6.878;2023-09-30T07:46:17;18.87;;;10.30;;
15082;SDS011;7640;53.116;6.878;2023-09-30T07:48:46;19.33;;;11.53;;
15082;SDS011;7640;53.116;6.878;2023-09-30T07:51:14;16.93;;;11.27;;
15082;SDS011;7640;53.116;6.878;2023-09-30T07:53:43;18.70;;;10.10;;
15082;SDS011;7640;53.116;6.878;2023-09-30T07:56:13;16.40;;;10.40;;
15082;SDS011;7640;53.116;6.878;2023-09-30T07:58:41;17.07;;;10.30;;
15082;SDS011;7640;53.116;6.878;2023-09-30T08:01:10;15.60;;;9.67;;
15082;SDS011;7640;53.116;6.878;2023-09-30T08:03:38;18.27;;;10.10;;
15082;SDS011;7640;53.116;6.878;2023-09-30T08:06:07;17.60;;;10.20;;
15082;SDS011;7640;53.116;6.878;2023-09-30T08:08:36;17.93;;;10.30;;
15082;SDS011;7640;53.116;6.878;2023-09-30T08:11:05;15.63;;;9.30;;
15082;SDS011;7640;53.116;6.878;2023-09-30T08:13:38;16.70;;;9.47;;
15082;SDS011;7640;53.116;6.878;2023-09-30T08:16:06;16.00;;;9.80;;
15082;SDS011;7640;53.116;6.878;2023-09-30T08:18:38;14.73;;;8.57;;
15082;SDS011;7640;53.116;6.878;2023-09-30T08:21:08;15.03;;;9.17;;
15082;SDS011;7640;53.116;6.878;2023-09-30T08:23:38;17.47;;;9.00;;
15082;SDS011;7640;53.116;6.878;2023-09-30T08:26:06;14.37;;;8.83;;
15082;SDS011;7640;53.116;6.878;2023-09-30T08:28:35;14.37;;;8.70;;
15082;SDS011;7640;53.116;6.878;2023-09-30T08:31:05;14.60;;;9.43;;
15082;SDS011;7640;53.116;6.878;2023-09-30T08:33:35;19.10;;;8.73;;
15082;SDS011;7640;53.116;6.878;2023-09-30T08:36:06;12.83;;;8.37;;
15082;SDS011;7640;53.116;6.878;2023-09-30T08:38:38;15.17;;;8.40;;
15082;SDS011;7640;53.116;6.878;2023-09-30T08:41:08;16.27;;;7.90;;
15082;SDS011;7640;53.116;6.878;2023-09-30T08:43:38;15.67;;;7.93;;
15082;SDS011;7640;53.116;6.878;2023-09-30T08:46:08;11.40;;;7.40;;
15082;SDS011;7640;53.116;6.878;2023-09-30T08:48:37;14.10;;;7.60;;
15082;SDS011;7640;53.116;6.878;2023-09-30T08:51:05;13.93;;;6.70;;
15082;SDS011;7640;53.116;6.878;2023-09-30T08:53:36;13.37;;;7.00;;
15082;SDS011;7640;53.116;6.878;2023-09-30T08:56:04;13.60;;;6.90;;
15082;SDS011;7640;53.116;6.878;2023-09-30T08:58:36;10.73;;;5.90;;
15082;SDS011;7640;53.116;6.878;2023-09-30T09:01:07;12.17;;;6.07;;
15082;SDS011;7640;53.116;6.878;2023-09-30T09:03:36;12.43;;;6.03;;
15082;SDS011;7640;53.116;6.878;2023-09-30T09:06:05;13.47;;;5.97;;
15082;SDS011;7640;53.116;6.878;2023-09-30T09:08:34;14.47;;;6.37;;
15082;SDS011;7640;53.116;6.878;2023-09-30T09:11:04;13.30;;;5.40;;
15082;SDS011;7640;53.116;6.878;2023-09-30T09:13:45;10.63;;;4.97;;
15082;SDS011;7640;53.116;6.878;2023-09-30T09:16:16;13.90;;;4.70;;
15082;SDS011;7640;53.116;6.878;2023-09-30T09:18:46;12.50;;;4.63;;
15082;SDS011;7640;53.116;6.878;2023-09-30T09:21:15;9.77;;;4.80;;
15082;SDS011;7640;53.116;6.878;2023-09-30T09:23:48;9.20;;;4.40;;
15082;SDS011;7640;53.116;6.878;2023-09-30T09:26:23;13.20;;;4.70;;
15082;SDS011;7640;53.116;6.878;2023-09-30T09:28:57;8.20;;;4.60;;
15082;SDS011;7640;53.116;6.878;2023-09-30T09:31:28;10.20;;;3.90;;
15082;SDS011;7640;53.116;6.878;2023-09-30T09:33:58;10.60;;;4.80;;
15082;SDS011;7640;53.116;6.878;2023-09-30T09:36:38;9.17;;;3.67;;
15082;SDS011;7640;53.116;6.878;2023-09-30T09:39:08;9.27;;;4.00;;
15082;SDS011;7640;53.116;6.878;2023-09-30T09:41:48;9.80;;;4.10;;
15082;SDS011;7640;53.116;6.878;2023-09-30T09:44:20;9.90;;;4.10;;
15082;SDS011;7640;53.116;6.878;2023-09-30T09:46:51;10.23;;;3.63;;
15082;SDS011;7640;53.116;6.878;2023-09-30T09:49:20;6.93;;;3.03;;
15082;SDS011;7640;53.116;6.878;2023-09-30T09:51:49;10.40;;;3.40;;
15082;SDS011;7640;53.116;6.878;2023-09-30T09:54:19;9.83;;;3.17;;
15082;SDS011;7640;53.116;6.878;2023-09-30T09:56:50;5.83;;;2.90;;
15082;SDS011;7640;53.116;6.878;2023-09-30T09:59:25;6.47;;;2.73;;
15082;SDS011;7640;53.116;6.878;2023-09-30T10:01:56;6.23;;;2.50;;
15082;SDS011;7640;53.116;6.878;2023-09-30T10:04:27;7.63;;;2.73;;
15082;SDS011;7640;53.116;6.878;2023-09-30T10:06:57;11.17;;;3.20;;
15082;SDS011;7640;53.116;6.878;2023-09-30T10:09:27;10.23;;;3.20;;
15082;SDS011;7640;53.116;6.878;2023-09-30T10:11:58;8.57;;;2.80;;
15082;SDS011;7640;53.116;6.878;2023-09-30T10:14:31;7.00;;;2.77;;
15082;SDS011;7640;53.116;6.878;2023-09-30T10:17:02;8.23;;;3.17;;
15082;SDS011;7640;53.116;6.878;2023-09-30T10:19:31;7.87;;;2.77;;
15082;SDS011;7640;53.116;6.878;2023-09-30T10:24:50;8.10;;;2.73;;
15082;SDS011;7640;53.116;6.878;2023-09-30T10:27:33;8.13;;;2.63;;
15082;SDS011;7640;53.116;6.878;2023-09-30T10:30:09;7.10;;;2.30;;
15082;SDS011;7640;53.116;6.878;2023-09-30T10:35:46;8.03;;;2.47;;
15082;SDS011;7640;53.116;6.878;2023-09-30T10:41:10;7.10;;;2.77;;
15082;SDS011;7640;53.116;6.878;2023-09-30T10:43:41;7.23;;;2.43;;
15082;SDS011;7640;53.116;6.878;2023-09-30T10:49:17;7.77;;;2.33;;
15082;SDS011;7640;53.116;6.878;2023-09-30T10:52:02;6.60;;;2.17;;
15082;SDS011;7640;53.116;6.878;2023-09-30T10:54:31;8.07;;;2.57;;
15082;SDS011;7640;53.116;6.878;2023-09-30T10:57:01;6.50;;;2.23;;
15082;SDS011;7640;53.116;6.878;2023-09-30T10:59:31;5.87;;;2.40;;
15082;SDS011;7640;53.116;6.878;2023-09-30T11:02:03;8.63;;;2.43;;
15082;SDS011;7640;53.116;6.878;2023-09-30T11:04:46;7.17;;;2.27;;
15082;SDS011;7640;53.116;6.878;2023-09-30T11:07:18;7.27;;;2.40;;
15082;SDS011;7640;53.116;6.878;2023-09-30T11:09:53;9.50;;;2.60;;
15082;SDS011;7640;53.116;6.878;2023-09-30T11:12:23;6.07;;;2.70;;
15082;SDS011;7640;53.116;6.878;2023-09-30T11:14:58;7.03;;;2.47;;
15082;SDS011;7640;53.116;6.878;2023-09-30T11:17:29;8.03;;;2.17;;
15082;SDS011;7640;53.116;6.878;2023-09-30T11:20:00;9.73;;;2.50;;
15082;SDS011;7640;53.116;6.878;2023-09-30T11:22:29;10.07;;;2.53;;
15082;SDS011;7640;53.116;6.878;2023-09-30T11:25:13;6.13;;;1.87;;
15082;SDS011;7640;53.116;6.878;2023-09-30T11:27:44;6.67;;;2.33;;
15082;SDS011;7640;53.116;6.878;2023-09-30T11:30:13;7.47;;;2.10;;
15082;SDS011;7640;53.116;6.878;2023-09-30T11:32:44;7.90;;;2.10;;
15082;SDS011;7640;53.116;6.878;2023-09-30T11:35:21;6.57;;;1.97;;
15082;SDS011;7640;53.116;6.878;2023-09-30T11:37:50;7.50;;;2.17;;
15082;SDS011;7640;53.116;6.878;2023-09-30T11:40:19;5.03;;;2.20;;
15082;SDS011;7640;53.116;6.878;2023-09-30T11:43:08;6.60;;;2.33;;
15082;SDS011;7640;53.116;6.878;2023-09-30T11:45:39;5.97;;;2.10;;
15082;SDS011;7640;53.116;6.878;2023-09-30T11:48:17;6.40;;;2.22;;
15082;SDS011;7640;53.116;6.878;2023-09-30T11:50:47;7.07;;;2.05;;
15082;SDS011;7640;53.116;6.878;2023-09-30T11:53:16;5.18;;;1.83;;
15082;SDS011;7640;53.116;6.878;2023-09-30T11:55:47;5.28;;;2.30;;
15082;SDS011;7640;53.116;6.878;2023-09-30T11:58:25;6.15;;;2.38;;
15082;SDS011;7640;53.116;6.878;2023-09-30T12:00:54;6.32;;;1.95;;
15082;SDS011;7640;53.116;6.878;2023-09-30T12:03:26;4.22;;;1.85;;
15082;SDS011;7640;53.116;6.878;2023-09-30T12:05:55;5.45;;;2.13;;
15082;SDS011;7640;53.116;6.878;2023-09-30T12:08:27;5.47;;;1.67;;
15082;SDS011;7640;53.116;6.878;2023-09-30T12:10:56;8.63;;;2.10;;
15082;SDS011;7640;53.116;6.878;2023-09-30T12:13:26;8.60;;;2.30;;
15082;SDS011;7640;53.116;6.878;2023-09-30T12:15:54;7.22;;;2.50;;
15082;SDS011;7640;53.116;6.878;2023-09-30T12:18:25;4.78;;;2.17;;
15082;SDS011;7640;53.116;6.878;2023-09-30T12:20:54;5.05;;;1.90;;
15082;SDS011;7640;53.116;6.878;2023-09-30T12:23:23;6.03;;;2.10;;
15082;SDS011;7640;53.116;6.878;2023-09-30T12:25:51;10.27;;;2.83;;
15082;SDS011;7640;53.116;6.878;2023-09-30T12:28:39;7.90;;;2.72;;
15082;SDS011;7640;53.116;6.878;2023-09-30T12:31:08;6.13;;;2.40;;
15082;SDS011;7640;53.116;6.878;2023-09-30T12:33:39;6.22;;;2.33;;
15082;SDS011;7640;53.116;6.878;2023-09-30T12:36:08;6.72;;;2.70;;
15082;SDS011;7640;53.116;6.878;2023-09-30T12:38:39;6.72;;;2.97;;
15082;SDS011;7640;53.116;6.878;2023-09-30T12:41:08;4.37;;;2.50;;
15082;SDS011;7640;53.116;6.878;2023-09-30T12:43:37;7.37;;;3.10;;
15082;SDS011;7640;53.116;6.878;2023-09-30T12:46:08;6.83;;;2.80;;
15082;SDS011;7640;53.116;6.878;2023-09-30T12:48:41;4.80;;;2.60;;
15082;SDS011;7640;53.116;6.878;2023-09-30T12:51:11;5.80;;;2.47;;
15082;SDS011;7640;53.116;6.878;2023-09-30T12:53:39;8.73;;;2.70;;
15082;SDS011;7640;53.116;6.878;2023-09-30T12:56:08;5.70;;;2.10;;
15082;SDS011;7640;53.116;6.878;2023-09-30T12:58:36;7.40;;;2.30;;
15082;SDS011;7640;53.116;6.878;2023-09-30T13:01:05;5.70;;;2.27;;
15082;SDS011;7640;53.116;6.878;2023-09-30T13:03:49;6.83;;;2.23;;
15082;SDS011;7640;53.116;6.878;2023-09-30T13:06:18;9.50;;;2.23;;
15082;SDS011;7640;53.116;6.878;2023-09-30T13:08:47;6.43;;;2.13;;
15082;SDS011;7640;53.116;6.878;2023-09-30T13:11:16;6.03;;;2.20;;
15082;SDS011;7640;53.116;6.878;2023-09-30T13:13:44;6.10;;;2.10;;
15082;SDS011;7640;53.116;6.878;2023-09-30T13:16:13;6.67;;;2.07;;
15082;SDS011;7640;53.116;6.878;2023-09-30T13:18:41;6.73;;;2.00;;
15082;SDS011;7640;53.116;6.878;2023-09-30T13:21:11;5.03;;;2.07;;
15082;SDS011;7640;53.116;6.878;2023-09-30T13:23:40;7.53;;;2.40;;
15082;SDS011;7640;53.116;6.878;2023-09-30T13:26:08;6.13;;;1.80;;
15082;SDS011;7640;53.116;6.878;2023-09-30T13:28:37;7.50;;;2.70;;
15082;SDS011;7640;53.116;6.878;2023-09-30T13:31:06;5.13;;;1.85;;
15082;SDS011;7640;53.116;6.878;2023-09-30T13:33:35;7.38;;;1.90;;
15082;SDS011;7640;53.116;6.878;2023-09-30T13:36:05;5.00;;;1.80;;
15082;SDS011;7640;53.116;6.878;2023-09-30T13:38:35;6.63;;;1.90;;
15082;SDS011;7640;53.116;6.878;2023-09-30T13:41:03;6.63;;;1.95;;
15082;SDS011;7640;53.116;6.878;2023-09-30T13:43:32;6.70;;;2.05;;
15082;SDS011;7640;53.116;6.878;2023-09-30T13:46:03;5.95;;;2.42;;
15082;SDS011;7640;53.116;6.878;2023-09-30T13:48:33;5.45;;;1.98;;
15082;SDS011;7640;53.116;6.878;2023-09-30T13:51:06;5.65;;;2.38;;
15082;SDS011;7640;53.116;6.878;2023-09-30T13:53:37;6.20;;;2.30;;
15082;SDS011;7640;53.116;6.878;2023-09-30T13:56:06;5.13;;;2.10;;
15082;SDS011;7640;53.116;6.878;2023-09-30T13:58:35;7.13;;;2.45;;
15082;SDS011;7640;53.116;6.878;2023-09-30T14:01:03;6.13;;;2.08;;
15082;SDS011;7640;53.116;6.878;2023-09-30T14:03:37;5.82;;;2.15;;
15082;SDS011;7640;53.116;6.878;2023-09-30T14:06:09;6.10;;;2.45;;
15082;SDS011;7640;53.116;6.878;2023-09-30T14:08:41;5.72;;;2.85;;
15082;SDS011;7640;53.116;6.878;2023-09-30T14:11:10;5.28;;;2.47;;
15082;SDS011;7640;53.116;6.878;2023-09-30T14:13:39;7.30;;;2.30;;
15082;SDS011;7640;53.116;6.878;2023-09-30T14:16:08;5.40;;;2.15;;
15082;SDS011;7640;53.116;6.878;2023-09-30T14:18:38;4.72;;;2.00;;
15082;SDS011;7640;53.116;6.878;2023-09-30T14:21:06;4.75;;;1.80;;
15082;SDS011;7640;53.116;6.878;2023-09-30T14:23:35;4.90;;;2.10;;
15082;SDS011;7640;53.116;6.878;2023-09-30T14:26:07;6.60;;;2.42;;
15082;SDS011;7640;53.116;6.878;2023-09-30T14:28:37;7.50;;;2.47;;
15082;SDS011;7640;53.116;6.878;2023-09-30T14:31:06;6.88;;;2.25;;
15082;SDS011;7640;53.116;6.878;2023-09-30T14:33:34;5.18;;;2.03;;
15082;SDS011;7640;53.116;6.878;2023-09-30T14:36:03;6.03;;;1.92;;
15082;SDS011;7640;53.116;6.878;2023-09-30T14:38:33;6.45;;;2.20;;
15082;SDS011;7640;53.116;6.878;2023-09-30T14:41:07;4.32;;;2.17;;
15082;SDS011;7640;53.116;6.878;2023-09-30T14:43:37;7.32;;;2.28;;
15082;SDS011;7640;53.116;6.878;2023-09-30T14:46:05;4.55;;;1.90;;
15082;SDS011;7640;53.116;6.878;2023-09-30T14:48:34;5.10;;;2.10;;
15082;SDS011;7640;53.116;6.878;2023-09-30T14:51:03;5.93;;;1.98;;
15082;SDS011;7640;53.116;6.878;2023-09-30T14:53:33;8.10;;;2.72;;
15082;SDS011;7640;53.116;6.878;2023-09-30T14:56:02;7.05;;;2.50;;
15082;SDS011;7640;53.116;6.878;2023-09-30T14:58:34;6.38;;;2.63;;
15082;SDS011;7640;53.116;6.878;2023-09-30T15:01:07;5.05;;;2.10;;
15082;SDS011;7640;53.116;6.878;2023-09-30T15:03:36;7.63;;;2.22;;
15082;SDS011;7640;53.116;6.878;2023-09-30T15:06:05;4.68;;;1.80;;
15082;SDS011;7640;53.116;6.878;2023-09-30T15:08:35;9.90;;;4.65;;
15082;SDS011;7640;53.116;6.878;2023-09-30T15:11:04;6.47;;;3.75;;
15082;SDS011;7640;53.116;6.878;2023-09-30T15:13:34;5.97;;;2.53;;
15082;SDS011;7640;53.116;6.878;2023-09-30T15:16:02;5.32;;;2.20;;
15082;SDS011;7640;53.116;6.878;2023-09-30T15:18:35;4.43;;;2.45;;
15082;SDS011;7640;53.116;6.878;2023-09-30T15:21:05;7.40;;;2.17;;